createdAt,value
2023-04-18T00:02:24.261Z,10.58
2023-04-18T00:04:52.764Z,10.59
2023-04-18T00:07:23.352Z,10.56
2023-04-18T00:09:51.793Z,10.51
2023-04-18T00:12:20.926Z,10.49
2023-04-18T00:14:50.351Z,10.46
2023-04-18T00:17:20.788Z,10.44
2023-04-18T00:19:50.271Z,10.42
2023-04-18T00:22:22.252Z,10.42
2023-04-18T00:24:53.171Z,10.39
2023-04-18T00:27:22.636Z,10.39
2023-04-18T00:29:51.069Z,10.41
2023-04-18T00:32:19.889Z,10.41
2023-04-18T00:34:48.677Z,10.41
2023-04-18T00:37:17.254Z,10.42
2023-04-18T00:39:46.713Z,10.39
2023-04-18T00:42:16.442Z,10.44
2023-04-18T00:44:44.767Z,10.44
2023-04-18T00:47:13.611Z,10.43
2023-04-18T00:49:41.993Z,10.42
2023-04-18T00:52:11.562Z,10.37
2023-04-18T00:54:40.641Z,10.36
2023-04-18T00:57:09.818Z,10.32
2023-04-18T00:59:39.868Z,10.28
2023-04-18T01:02:10.026Z,10.26
2023-04-18T01:04:38.597Z,10.19
2023-04-18T01:07:10.594Z,10.16
2023-04-18T01:09:39.320Z,10.13
2023-04-18T01:12:07.710Z,10.05
2023-04-18T01:14:36.797Z,10.04
2023-04-18T01:17:08.054Z,9.99
2023-04-18T01:19:36.804Z,10.00
2023-04-18T01:22:05.199Z,9.97
2023-04-18T01:24:36.520Z,9.91
2023-04-18T01:27:05.859Z,9.91
2023-04-18T01:29:36.752Z,9.85
2023-04-18T01:32:07.318Z,9.84
2023-04-18T01:34:36.113Z,9.85
2023-04-18T01:37:07.989Z,9.78
2023-04-18T01:39:37.726Z,9.81
2023-04-18T01:42:07.272Z,9.78
2023-04-18T01:44:35.708Z,9.75
2023-04-18T01:47:04.282Z,9.68
2023-04-18T01:49:34.376Z,9.63
2023-04-18T01:52:03.228Z,9.59
2023-04-18T01:54:31.598Z,9.54
2023-04-18T01:57:01.358Z,9.53
2023-04-18T01:59:30.679Z,9.50
2023-04-18T02:02:00.225Z,9.44
2023-04-18T02:04:28.814Z,9.49
2023-04-18T02:06:57.223Z,9.48
2023-04-18T02:09:26.639Z,9.44
2023-04-18T02:11:56.271Z,9.38
2023-04-18T02:14:28.112Z,9.31
2023-04-18T02:16:56.557Z,9.25
2023-04-18T02:19:25.714Z,9.13
2023-04-18T02:21:54.156Z,9.10
2023-04-18T02:24:23.003Z,9.09
2023-04-18T02:26:52.062Z,9.09
2023-04-18T02:29:20.968Z,9.09
2023-04-18T02:31:51.172Z,9.07
2023-04-18T02:34:19.607Z,9.05
2023-04-18T02:36:50.407Z,9.04
2023-04-18T02:39:18.789Z,8.99
2023-04-18T02:41:48.145Z,8.95
2023-04-18T02:44:17.423Z,8.88
2023-04-18T02:46:45.919Z,8.81
2023-04-18T02:49:17.131Z,8.80
2023-04-18T02:51:46.566Z,8.81
2023-04-18T02:54:15.800Z,8.78
2023-04-18T02:56:57.406Z,8.77
2023-04-18T02:59:53.867Z,8.70
2023-04-18T03:02:48.235Z,8.73
2023-04-18T03:05:40.618Z,8.69
2023-04-18T03:08:09.618Z,8.64
2023-04-18T03:10:39.969Z,8.54
2023-04-18T03:13:08.843Z,8.55
2023-04-18T03:15:38.848Z,8.57
2023-04-18T03:18:08.913Z,8.54
2023-04-18T03:20:42.489Z,8.55
2023-04-18T03:23:10.871Z,8.60
2023-04-18T03:25:40.746Z,8.61
2023-04-18T03:28:09.558Z,8.61
2023-04-18T03:30:38.547Z,8.62
2023-04-18T03:33:08.605Z,8.62
2023-04-18T03:35:38.114Z,8.61
2023-04-18T03:38:08.651Z,8.53
2023-04-18T03:40:40.148Z,8.46
2023-04-18T03:43:17.164Z,8.43
2023-04-18T03:45:47.292Z,8.46
2023-04-18T03:48:18.756Z,8.46
2023-04-18T03:50:48.655Z,8.44
2023-04-18T03:53:18.768Z,8.42
2023-04-18T03:55:49.105Z,8.15
2023-04-18T03:58:23.678Z,8.26
2023-04-18T04:00:54.483Z,8.28
2023-04-18T04:03:23.354Z,8.30
2023-04-18T04:05:52.104Z,8.25
2023-04-18T04:08:23.451Z,8.20
2023-04-18T04:10:52.229Z,8.15
2023-04-18T04:13:21.070Z,8.20
2023-04-18T04:15:50.308Z,8.23
2023-04-18T04:18:19.599Z,8.24
2023-04-18T04:20:49.807Z,8.19
2023-04-18T04:23:33.150Z,8.18
2023-04-18T04:26:04.690Z,8.17
2023-04-18T04:28:42.812Z,8.15
2023-04-18T04:31:13.016Z,8.14
2023-04-18T04:33:43.518Z,8.11
2023-04-18T04:36:19.503Z,8.10
2023-04-18T04:38:54.721Z,8.10
2023-04-18T04:41:53.490Z,8.07
2023-04-18T04:44:26.127Z,8.02
2023-04-18T04:46:56.044Z,7.99
2023-04-18T04:49:29.957Z,8.01
2023-04-18T04:52:01.322Z,8.02
2023-04-18T04:54:31.876Z,8.03
2023-04-18T04:57:01.954Z,8.08
2023-04-18T04:59:30.817Z,8.08
2023-04-18T05:01:59.258Z,8.07
2023-04-18T05:04:29.472Z,8.06
2023-04-18T05:06:58.558Z,8.08
2023-04-18T05:09:27.942Z,8.07
2023-04-18T05:11:57.898Z,7.91
2023-04-18T05:14:26.388Z,8.05
2023-04-18T05:16:56.873Z,8.09
2023-04-18T05:19:25.283Z,8.12
2023-04-18T05:21:54.532Z,8.19
2023-04-18T05:24:22.892Z,8.21
2023-04-18T05:26:52.133Z,8.21
2023-04-18T05:29:22.324Z,8.26
2023-04-18T05:31:51.941Z,8.26
2023-04-18T05:34:20.956Z,8.29
2023-04-18T05:36:49.498Z,8.33
2023-04-18T05:39:18.936Z,8.36
2023-04-18T05:41:47.452Z,8.36
2023-04-18T05:44:18.473Z,8.38
2023-04-18T05:46:51.344Z,8.41
2023-04-18T05:49:20.506Z,8.44
2023-04-18T05:51:49.963Z,8.46
2023-04-18T05:54:18.539Z,8.49
2023-04-18T05:56:46.930Z,8.60
2023-04-18T05:59:16.119Z,8.70
2023-04-18T06:01:44.533Z,8.69
2023-04-18T06:04:15.353Z,8.75
2023-04-18T06:06:44.197Z,8.79
2023-04-18T06:09:12.635Z,8.76
2023-04-18T06:11:41.602Z,8.89
2023-04-18T06:14:10.048Z,8.75
2023-04-18T06:16:39.462Z,8.89
2023-04-18T06:19:07.955Z,8.88
2023-04-18T06:21:38.586Z,8.94
2023-04-18T06:24:07.627Z,8.95
2023-04-18T06:26:36.806Z,8.82
2023-04-18T06:29:05.254Z,8.82
2023-04-18T06:31:34.030Z,8.91
2023-04-18T06:34:02.492Z,8.92
2023-04-18T06:36:31.899Z,8.82
2023-04-18T06:39:01.670Z,8.93
2023-04-18T06:41:30.096Z,8.82
2023-04-18T06:44:04.234Z,8.84
2023-04-18T06:46:33.423Z,8.87
2023-04-18T06:49:02.743Z,8.84
2023-04-18T06:51:31.598Z,8.81
2023-04-18T06:54:02.987Z,8.87
2023-04-18T06:56:31.445Z,8.61
2023-04-18T06:59:00.216Z,9.13
2023-04-18T07:01:28.630Z,9.24
2023-04-18T07:03:57.082Z,9.32
2023-04-18T07:06:26.228Z,9.40
2023-04-18T07:09:00.018Z,9.53
2023-04-18T07:11:30.258Z,9.60
2023-04-18T07:13:58.703Z,9.76
2023-04-18T07:16:27.089Z,9.85
2023-04-18T07:18:56.326Z,9.98
2023-04-18T07:21:24.872Z,10.05
2023-04-18T07:23:53.687Z,10.16
2023-04-18T07:26:22.079Z,10.33
2023-04-18T07:28:52.273Z,10.50
2023-04-18T07:31:21.254Z,10.56
2023-04-18T07:33:49.675Z,10.55
2023-04-18T07:36:18.715Z,10.49
2023-04-18T07:38:47.364Z,10.41
2023-04-18T07:41:16.595Z,10.26
2023-04-18T07:43:46.026Z,10.28
2023-04-18T07:46:16.182Z,10.32
2023-04-18T07:48:44.649Z,10.40
2023-04-18T07:51:13.534Z,10.54
2023-04-18T07:53:43.560Z,10.55
2023-04-18T07:56:14.946Z,10.61
2023-04-18T07:58:43.283Z,10.66
2023-04-18T08:01:14.077Z,10.75
2023-04-18T08:03:44.042Z,11.00
2023-04-18T08:06:13.535Z,11.17
2023-04-18T08:08:42.055Z,11.25
2023-04-18T08:11:11.624Z,11.39
2023-04-18T08:13:40.459Z,11.47
2023-04-18T08:16:09.843Z,11.65
2023-04-18T08:18:39.188Z,11.62
2023-04-18T08:21:09.148Z,11.85
2023-04-18T08:23:37.962Z,11.93
2023-04-18T08:26:06.529Z,12.01
2023-04-18T08:28:35.379Z,12.06
2023-04-18T08:31:03.836Z,12.13
2023-04-18T08:33:33.840Z,12.26
2023-04-18T08:36:02.178Z,12.20
2023-04-18T08:38:32.991Z,12.14
2023-04-18T08:41:01.416Z,12.57
2023-04-18T08:43:31.329Z,12.83
2023-04-18T08:46:01.547Z,13.04
2023-04-18T08:48:30.600Z,13.25
2023-04-18T08:51:00.417Z,13.32
2023-04-18T08:53:29.256Z,13.31
2023-04-18T08:56:00.932Z,13.26
2023-04-18T08:58:32.281Z,13.21
2023-04-18T09:01:01.903Z,13.21
2023-04-18T09:03:39.678Z,13.18
2023-04-18T09:06:10.325Z,13.10
2023-04-18T09:08:39.134Z,13.23
2023-04-18T09:11:29.661Z,13.20
2023-04-18T09:13:59.865Z,13.15
2023-04-18T09:16:30.292Z,13.21
2023-04-18T09:19:14.413Z,13.26
2023-04-18T09:21:46.598Z,13.21
2023-04-18T09:24:21.129Z,13.32
2023-04-18T09:26:54.266Z,13.34
2023-04-18T09:29:23.904Z,13.37
2023-04-18T09:31:57.334Z,13.42
2023-04-18T09:34:26.877Z,13.42
2023-04-18T09:37:10.978Z,13.63
2023-04-18T09:39:40.688Z,13.60
2023-04-18T09:42:11.735Z,13.86
2023-04-18T09:45:00.310Z,13.76
2023-04-18T09:47:29.371Z,13.76
2023-04-18T09:49:58.847Z,13.90
2023-04-18T09:52:27.239Z,14.01
2023-04-18T09:55:00.934Z,14.01
2023-04-18T09:57:32.991Z,14.16
2023-04-18T10:00:10.481Z,14.10
2023-04-18T10:02:52.354Z,13.97
2023-04-18T10:05:25.095Z,13.86
2023-04-18T10:07:54.368Z,13.65
2023-04-18T10:10:23.277Z,13.53
2023-04-18T10:12:56.399Z,13.50
2023-04-18T10:15:28.481Z,13.44
2023-04-18T10:18:05.623Z,13.44
2023-04-18T10:20:36.164Z,13.46
2023-04-18T10:23:36.424Z,13.53
2023-04-18T10:26:06.161Z,13.60
2023-04-18T10:28:57.090Z,13.67
2023-04-18T10:31:27.032Z,13.73
2023-04-18T10:36:30.318Z,13.74
2023-04-18T10:39:03.540Z,13.80
2023-04-18T10:41:33.083Z,13.79
2023-04-18T10:44:18.665Z,13.84
2023-04-18T10:47:22.942Z,13.87
2023-04-18T10:49:58.755Z,13.97
2023-04-18T10:52:28.424Z,14.08
2023-04-18T10:55:09.465Z,14.14
2023-04-18T10:57:46.089Z,14.23
2023-04-18T11:00:22.092Z,14.44
2023-04-18T11:02:53.691Z,14.46
2023-04-18T11:05:25.853Z,14.75
2023-04-18T11:07:54.653Z,14.68
2023-04-18T11:10:26.778Z,14.54
2023-04-18T11:12:56.456Z,14.36
2023-04-18T11:15:29.145Z,14.48
2023-04-18T11:18:01.130Z,14.34
2023-04-18T11:20:30.058Z,14.19
2023-04-18T11:23:00.624Z,14.08
2023-04-18T11:25:30.505Z,14.05
2023-04-18T11:28:01.310Z,14.07
2023-04-18T11:30:38.496Z,14.02
2023-04-18T11:33:09.231Z,13.93
2023-04-18T11:35:38.632Z,13.85
2023-04-18T11:38:08.671Z,13.78
2023-04-18T11:40:38.679Z,13.58
2023-04-18T11:43:08.928Z,13.48
2023-04-18T11:45:39.281Z,13.55
2023-04-18T11:48:07.768Z,13.41
2023-04-18T11:50:38.165Z,13.42
2023-04-18T11:53:06.946Z,13.50
2023-04-18T11:55:35.458Z,13.45
2023-04-18T11:58:06.555Z,13.50
2023-04-18T12:00:37.104Z,13.41
2023-04-18T12:03:13.369Z,13.50
2023-04-18T12:05:43.299Z,13.37
2023-04-18T12:08:14.048Z,13.40
2023-04-18T12:10:48.038Z,13.34
2023-04-18T12:13:18.986Z,13.23
2023-04-18T12:15:47.845Z,13.16
2023-04-18T12:18:19.796Z,13.13
2023-04-18T12:20:52.165Z,13.14
2023-04-18T12:23:31.015Z,13.26
2023-04-18T12:26:02.576Z,13.18
2023-04-18T12:28:31.589Z,13.06
2023-04-18T12:31:01.156Z,13.11
2023-04-18T12:33:31.705Z,13.10
2023-04-18T12:36:01.988Z,13.12
2023-04-18T12:38:30.354Z,13.19
2023-04-18T12:40:59.168Z,13.22
2023-04-18T12:43:27.746Z,13.23
2023-04-18T12:45:56.564Z,13.22
2023-04-18T12:48:24.930Z,13.15
2023-04-18T12:50:54.934Z,13.02
2023-04-18T12:53:24.205Z,12.92
2023-04-18T12:55:52.991Z,12.78
2023-04-18T12:58:21.766Z,12.86
2023-04-18T13:00:50.191Z,12.91
2023-04-18T13:03:19.187Z,13.02
2023-04-18T13:05:47.831Z,12.96
2023-04-18T13:08:18.377Z,12.96
2023-04-18T13:10:47.632Z,12.98
2023-04-18T13:13:16.568Z,12.85
2023-04-18T13:15:45.513Z,12.83
2023-04-18T13:18:14.330Z,12.81
2023-04-18T13:20:44.419Z,12.82
2023-04-18T13:23:12.785Z,12.84
2023-04-18T13:25:43.337Z,12.87
2023-04-18T13:28:11.696Z,12.77
2023-04-18T13:30:40.466Z,12.76
2023-04-18T13:33:10.266Z,12.68
2023-04-18T13:35:39.950Z,12.59
2023-04-18T13:38:08.354Z,12.39
2023-04-18T13:40:39.243Z,12.44
2023-04-18T13:43:10.906Z,12.45
2023-04-18T13:45:40.098Z,12.40
2023-04-18T13:48:08.939Z,12.41
2023-04-18T13:50:37.307Z,12.47
2023-04-18T13:53:06.151Z,12.47
2023-04-18T13:55:37.280Z,12.51
2023-04-18T13:58:07.942Z,12.58
2023-04-18T14:00:39.621Z,12.61
2023-04-18T14:03:08.708Z,12.71
2023-04-18T14:05:37.605Z,12.72
2023-04-18T14:08:06.517Z,12.75
2023-04-18T14:10:36.795Z,12.83
2023-04-18T14:13:05.143Z,12.95
2023-04-18T14:15:34.527Z,12.94
2023-04-18T14:18:04.594Z,12.84
2023-04-18T14:20:35.121Z,12.73
2023-04-18T14:23:03.501Z,12.79
2023-04-18T14:25:33.151Z,12.77
2023-04-18T14:28:07.876Z,12.72
2023-04-18T14:30:37.093Z,12.70
2023-04-18T14:33:09.717Z,12.77
2023-04-18T14:35:38.460Z,12.93
2023-04-18T14:38:07.475Z,13.09
2023-04-18T14:40:36.409Z,13.08
2023-04-18T14:43:04.779Z,13.14
2023-04-18T14:45:34.816Z,12.87
2023-04-18T14:48:03.969Z,13.01
2023-04-18T14:50:33.673Z,13.09
2023-04-18T14:53:02.770Z,13.08
2023-04-18T14:55:31.284Z,13.09
2023-04-18T14:58:00.165Z,13.17
2023-04-18T15:00:28.644Z,13.29
2023-04-18T15:02:57.769Z,13.30
2023-04-18T15:05:26.496Z,13.17
2023-04-18T15:07:56.451Z,13.37
2023-04-18T15:10:25.020Z,13.30
2023-04-18T15:12:54.920Z,13.28
2023-04-18T15:15:25.164Z,13.25
2023-04-18T15:17:53.529Z,13.09
2023-04-18T15:20:24.006Z,13.16
2023-04-18T15:22:52.687Z,13.18
2023-04-18T15:25:24.408Z,13.09
2023-04-18T15:27:53.199Z,13.17
2023-04-18T15:30:22.379Z,13.17
2023-04-18T15:32:52.176Z,13.24
2023-04-18T15:35:21.117Z,13.16
2023-04-18T15:37:51.285Z,13.09
2023-04-18T15:40:19.860Z,13.03
2023-04-18T15:42:53.557Z,13.02
2023-04-18T15:45:22.594Z,13.13
2023-04-18T15:47:52.052Z,13.08
2023-04-18T15:50:20.701Z,12.98
2023-04-18T15:52:49.828Z,13.05
2023-04-18T15:55:18.189Z,13.12
2023-04-18T15:57:48.207Z,13.20
2023-04-18T16:00:19.768Z,13.15
2023-04-18T16:02:48.969Z,13.12
2023-04-18T16:05:17.442Z,13.09
2023-04-18T16:07:46.490Z,13.04
2023-04-18T16:10:15.323Z,13.00
2023-04-18T16:12:44.212Z,12.93
2023-04-18T16:15:13.663Z,13.05
2023-04-18T16:17:44.282Z,13.10
2023-04-18T16:20:13.510Z,13.11
2023-04-18T16:22:42.136Z,12.95
2023-04-18T16:27:57.401Z,12.80
2023-04-18T16:30:25.769Z,12.92
2023-04-18T16:32:56.086Z,12.75
2023-04-18T16:35:24.768Z,12.60
2023-04-18T16:37:53.682Z,12.49
2023-04-18T16:40:22.076Z,12.34
2023-04-18T16:42:52.723Z,12.35
2023-04-18T16:45:21.528Z,12.28
2023-04-18T16:47:49.925Z,12.36
2023-04-18T16:50:20.532Z,12.37
2023-04-18T16:52:48.949Z,12.32
2023-04-18T16:55:18.861Z,12.31
2023-04-18T16:57:47.201Z,12.11
2023-04-18T17:00:16.624Z,11.81
2023-04-18T17:02:45.247Z,11.79
2023-04-18T17:05:14.618Z,11.74
2023-04-18T17:07:45.840Z,11.55
2023-04-18T17:10:15.051Z,11.58
2023-04-18T17:12:43.505Z,11.60
2023-04-18T17:15:12.570Z,11.60
2023-04-18T17:17:41.372Z,11.60
2023-04-18T17:20:10.977Z,11.60
2023-04-18T17:22:40.787Z,11.43
2023-04-18T17:25:12.166Z,11.51
2023-04-18T17:27:41.440Z,11.55
2023-04-18T17:30:11.520Z,11.57
2023-04-18T17:32:42.996Z,11.58
2023-04-18T17:35:11.527Z,11.65
2023-04-18T17:37:39.912Z,11.59
2023-04-18T17:40:11.888Z,11.74
2023-04-18T17:42:42.276Z,11.75
2023-04-18T17:45:11.231Z,11.77
2023-04-18T17:47:40.806Z,11.75
2023-04-18T17:50:10.176Z,11.69
2023-04-18T17:52:39.533Z,11.69
2023-04-18T17:55:10.825Z,11.67
2023-04-18T17:57:39.249Z,11.68
2023-04-18T18:00:12.187Z,11.56
2023-04-18T18:02:43.691Z,11.56
2023-04-18T18:05:14.131Z,11.51
2023-04-18T18:07:47.417Z,11.40
2023-04-18T18:10:19.961Z,11.30
2023-04-18T18:12:49.138Z,11.37
2023-04-18T18:15:18.973Z,11.31
2023-04-18T18:17:49.396Z,11.44
2023-04-18T18:20:19.064Z,11.38
2023-04-18T18:22:48.575Z,11.51
2023-04-18T18:25:18.347Z,11.37
2023-04-18T18:27:48.583Z,11.33
2023-04-18T18:30:17.268Z,11.27
2023-04-18T18:32:46.579Z,11.02
2023-04-18T18:35:16.191Z,10.97
2023-04-18T18:37:44.889Z,10.97
2023-04-18T18:40:15.155Z,10.91
2023-04-18T18:42:45.021Z,11.03
2023-04-18T18:45:15.027Z,10.99
2023-04-18T18:47:43.453Z,10.93
2023-04-18T18:50:12.744Z,10.88
2023-04-18T18:52:43.025Z,10.87
2023-04-18T18:55:13.687Z,10.80
2023-04-18T18:57:42.034Z,10.76
2023-04-18T19:00:13.761Z,10.83
2023-04-18T19:02:42.850Z,10.77
2023-04-18T19:05:12.742Z,10.80
2023-04-18T19:07:43.352Z,10.83
2023-04-18T19:10:12.177Z,10.85
2023-04-18T19:12:41.261Z,10.87
2023-04-18T19:15:10.743Z,10.93
2023-04-18T19:17:42.101Z,11.00
2023-04-18T19:20:10.724Z,11.09
2023-04-18T19:22:40.084Z,11.12
2023-04-18T19:25:09.918Z,11.15
2023-04-18T19:27:39.971Z,11.19
2023-04-18T19:30:10.573Z,11.23
2023-04-18T19:32:40.843Z,11.24
2023-04-18T19:35:13.077Z,11.28
2023-04-18T19:38:01.698Z,11.27
2023-04-18T19:40:30.820Z,11.22
2023-04-18T19:42:59.221Z,11.27
2023-04-18T19:45:28.772Z,11.28
2023-04-18T19:47:58.513Z,11.26
2023-04-18T19:50:27.601Z,11.23
2023-04-18T19:52:58.871Z,11.22
2023-04-18T19:55:27.515Z,11.22
2023-04-18T19:57:57.473Z,11.17
2023-04-18T20:00:25.876Z,11.17
2023-04-18T20:02:54.391Z,11.15
2023-04-18T20:05:24.753Z,11.14
2023-04-18T20:07:54.655Z,11.15
2023-04-18T20:10:23.157Z,11.13
2023-04-18T20:12:51.533Z,11.14
2023-04-18T20:15:20.300Z,11.13
2023-04-18T20:17:48.688Z,11.12
2023-04-18T20:20:17.619Z,11.12
2023-04-18T20:22:47.763Z,11.10
2023-04-18T20:25:17.888Z,11.07
2023-04-18T20:27:46.244Z,11.13
2023-04-18T20:30:15.821Z,11.13
2023-04-18T20:32:44.314Z,11.10
2023-04-18T20:35:13.739Z,11.07
2023-04-18T20:37:42.146Z,11.02
2023-04-18T20:40:13.895Z,10.97
2023-04-18T20:42:42.240Z,10.96
2023-04-18T20:45:11.722Z,10.95
2023-04-18T20:47:41.242Z,10.93
2023-04-18T20:50:10.650Z,10.91
2023-04-18T20:52:43.101Z,10.88
2023-04-18T20:55:13.146Z,10.85
2023-04-18T20:57:43.187Z,10.81
2023-04-18T21:00:13.894Z,10.78
2023-04-18T21:02:43.385Z,10.82
2023-04-18T21:05:12.046Z,10.81
2023-04-18T21:07:40.433Z,10.80
2023-04-18T21:10:09.951Z,10.78
2023-04-18T21:12:39.818Z,10.79
2023-04-18T21:15:09.678Z,10.77
2023-04-18T21:17:38.063Z,10.76
2023-04-18T21:20:08.513Z,10.68
2023-04-18T21:22:36.937Z,10.68
2023-04-18T21:25:07.390Z,10.56
2023-04-18T21:27:35.860Z,10.60
2023-04-18T21:30:07.878Z,10.58
2023-04-18T21:32:36.402Z,10.58
2023-04-18T21:35:06.377Z,10.56
2023-04-18T21:37:34.995Z,10.54
2023-04-18T21:40:04.941Z,10.56
2023-04-18T21:42:35.484Z,10.56
2023-04-18T21:45:04.161Z,10.55
2023-04-18T21:47:35.088Z,10.54
2023-04-18T21:50:04.154Z,10.54
2023-04-18T21:52:33.337Z,10.56
2023-04-18T21:55:01.772Z,10.55
2023-04-18T21:57:30.834Z,10.38
2023-04-18T21:59:59.757Z,10.52
2023-04-18T22:02:28.789Z,10.52
2023-04-18T22:04:59.548Z,10.49
2023-04-18T22:07:29.503Z,10.47
2023-04-18T22:10:00.329Z,10.46
2023-04-18T22:12:28.659Z,10.47
2023-04-18T22:14:58.113Z,10.29
2023-04-18T22:17:27.051Z,10.46
2023-04-18T22:19:56.447Z,10.38
2023-04-18T22:22:26.135Z,10.30
2023-04-18T22:24:55.294Z,10.28
2023-04-18T22:27:23.655Z,10.19
2023-04-18T22:29:52.554Z,10.12
2023-04-18T22:32:21.506Z,10.06
2023-04-18T22:34:49.870Z,10.15
2023-04-18T22:37:22.420Z,10.17
2023-04-18T22:39:59.371Z,10.12
2023-04-18T22:43:00.940Z,10.11
2023-04-18T22:45:29.305Z,10.14
2023-04-18T22:47:58.394Z,10.14
2023-04-18T22:50:27.372Z,10.11
2023-04-18T22:52:57.606Z,10.11
2023-04-18T22:55:27.371Z,10.11
2023-04-18T22:57:57.130Z,10.09
2023-04-18T23:00:25.442Z,9.95
2023-04-18T23:02:54.814Z,10.07
2023-04-18T23:05:23.828Z,10.08
2023-04-18T23:07:52.171Z,10.09
2023-04-18T23:10:22.195Z,10.04
2023-04-18T23:12:52.464Z,10.11
2023-04-18T23:15:22.856Z,10.16
2023-04-18T23:17:53.425Z,10.18
2023-04-18T23:20:24.114Z,10.18
2023-04-18T23:22:52.767Z,10.08
2023-04-18T23:25:22.687Z,10.08
2023-04-18T23:27:52.443Z,10.15
2023-04-18T23:30:22.525Z,10.14
2023-04-18T23:32:51.013Z,10.25
2023-04-18T23:35:20.179Z,10.28
2023-04-18T23:37:49.156Z,10.29
2023-04-18T23:40:17.897Z,10.23
2023-04-18T23:42:47.478Z,10.22
2023-04-18T23:45:17.345Z,10.30
2023-04-18T23:47:46.165Z,10.32
2023-04-18T23:50:14.541Z,10.30
2023-04-18T23:52:43.814Z,10.31
2023-04-18T23:55:12.278Z,10.39
2023-04-18T23:57:41.845Z,10.43
